Time;durP1;ratioP1;P1;durP2;ratioP2;P2;SDS_P1;SDS_P2;PMS_P1;PMS_P2;Temp;Humidity;BMP_temperature;BMP_pressure;BME280_temperature;BME280_humidity;BME280_pressure;Samples;Min_cycle;Max_cycle;Signal;HPM_P1;HPM_P2
2022/08/10 00:02:30;;;;;;;4.28;2.25;;;;;;;;;;5075591;28;20044;-82
2022/08/10 00:04:56;;;;;;;2.67;2.00;;;;;;;;;;5075604;28;20457;-81
2022/08/10 00:07:21;;;;;;;2.55;2.25;;;;;;;;;;5075817;28;20047;-82
2022/08/10 00:09:46;;;;;;;5.47;2.03;;;;;;;;;;5074390;28;20123;-82
2022/08/10 00:12:12;;;;;;;2.40;2.10;;;;;;;;;;5075821;28;20489;-82
2022/08/10 00:14:37;;;;;;;4.55;2.17;;;;;;;;;;5057634;28;20074;-82
2022/08/10 00:17:03;;;;;;;3.08;2.00;;;;;;;;;;5075726;28;20036;-82
2022/08/10 00:19:29;;;;;;;2.63;2.05;;;;;;;;;;5075346;28;20043;-83
2022/08/10 00:21:54;;;;;;;3.95;2.00;;;;;;;;;;5075842;28;20086;-82
2022/08/10 00:24:20;;;;;;;3.22;1.90;;;;;;;;;;5075005;28;20040;-82
2022/08/10 00:26:45;;;;;;;2.58;1.90;;;;;;;;;;5075544;28;20041;-82
2022/08/10 00:29:10;;;;;;;5.07;2.15;;;;;;;;;;5075316;28;20603;-82
2022/08/10 00:31:36;;;;;;;3.58;2.00;;;;;;;;;;5075486;28;20119;-82
2022/08/10 00:34:01;;;;;;;3.25;2.13;;;;;;;;;;5075035;28;20452;-82
2022/08/10 00:36:27;;;;;;;3.28;2.25;;;;;;;;;;5074544;28;20043;-82
2022/08/10 00:38:52;;;;;;;3.55;2.08;;;;;;;;;;5075858;28;20035;-82
2022/08/10 00:41:18;;;;;;;2.53;1.95;;;;;;;;;;5075630;28;20032;-81
2022/08/10 00:43:43;;;;;;;5.35;2.28;;;;;;;;;;5057772;28;20036;-82
2022/08/10 00:46:09;;;;;;;3.53;2.10;;;;;;;;;;5056897;28;20120;-82
2022/08/10 00:48:34;;;;;;;6.75;2.50;;;;;;;;;;5075444;28;20411;-82
2022/08/10 00:51:00;;;;;;;3.08;2.00;;;;;;;;;;5074776;28;20119;-82
2022/08/10 00:53:27;;;;;;;4.13;2.25;;;;;;;;;;5075569;28;20041;-82
2022/08/10 00:55:53;;;;;;;4.78;2.42;;;;;;;;;;5074749;28;20086;-82
2022/08/10 00:58:18;;;;;;;4.80;2.30;;;;;;;;;;5075241;28;20024;-82
2022/08/10 01:00:46;;;;;;;4.15;2.20;;;;;;;;;;5075014;28;20036;-83
2022/08/10 01:03:12;;;;;;;4.28;2.40;;;;;;;;;;5075326;28;20085;-81
2022/08/10 01:05:50;;;;;;;5.32;2.50;;;;;;;;;;5074490;28;20068;-83
2022/08/10 01:08:28;;;;;;;4.70;2.30;;;;;;;;;;5074855;28;20081;-82
2022/08/10 01:11:04;;;;;;;2.85;2.00;;;;;;;;;;5073133;28;20412;-82
2022/08/10 01:13:36;;;;;;;5.32;2.25;;;;;;;;;;5075283;28;20094;-82
2022/08/10 01:16:31;;;;;;;4.05;1.95;;;;;;;;;;5073529;28;20158;-82
2022/08/10 01:19:00;;;;;;;3.35;2.17;;;;;;;;;;5061623;28;20045;-82
2022/08/10 01:21:54;;;;;;;2.38;2.08;;;;;;;;;;5074709;28;20080;-82
2022/08/10 01:24:20;;;;;;;3.33;2.15;;;;;;;;;;5074549;28;20033;-82
2022/08/10 01:27:30;;;;;;;3.97;2.30;;;;;;;;;;5074771;28;20037;-82
2022/08/10 01:30:12;;;;;;;3.55;2.28;;;;;;;;;;5051713;28;20417;-82
2022/08/10 01:33:04;;;;;;;3.95;2.65;;;;;;;;;;5074645;28;20402;-82
2022/08/10 01:35:35;;;;;;;4.93;2.55;;;;;;;;;;5073760;28;20444;-83
2022/08/10 01:38:23;;;;;;;3.95;2.80;;;;;;;;;;5074279;28;20103;-81
2022/08/10 01:41:03;;;;;;;3.47;2.67;;;;;;;;;;5056647;28;20037;-82
2022/08/10 01:43:30;;;;;;;6.07;2.60;;;;;;;;;;5074711;28;20489;-82
2022/08/10 01:45:58;;;;;;;5.85;2.47;;;;;;;;;;5073844;28;20119;-82
2022/08/10 01:48:33;;;;;;;3.08;2.60;;;;;;;;;;5074033;28;20123;-82
2022/08/10 01:51:37;;;;;;;2.50;2.28;;;;;;;;;;5074719;28;20059;-82
2022/08/10 01:54:04;;;;;;;4.15;2.40;;;;;;;;;;4995449;28;20081;-82
2022/08/10 01:56:33;;;;;;;3.28;2.30;;;;;;;;;;5062910;28;20052;-82
2022/08/10 01:59:03;;;;;;;5.00;2.50;;;;;;;;;;5074510;28;20029;-82
2022/08/10 02:01:32;;;;;;;4.20;2.47;;;;;;;;;;5074713;28;20044;-82
2022/08/10 02:04:03;;;;;;;5.00;2.40;;;;;;;;;;5074046;28;20035;-81
2022/08/10 02:06:31;;;;;;;3.50;2.70;;;;;;;;;;5074650;28;20142;-82
2022/08/10 02:09:00;;;;;;;3.97;2.50;;;;;;;;;;5054740;28;20103;-82
2022/08/10 02:11:27;;;;;;;4.18;2.45;;;;;;;;;;5074055;28;20040;-82
2022/08/10 02:13:55;;;;;;;4.05;2.45;;;;;;;;;;5056343;28;20033;-82
2022/08/10 02:16:23;;;;;;;4.63;2.45;;;;;;;;;;5056183;28;20036;-82
2022/08/10 02:18:51;;;;;;;2.50;2.30;;;;;;;;;;5056453;28;20051;-82
2022/08/10 02:21:18;;;;;;;3.50;2.40;;;;;;;;;;5075247;28;20058;-82
2022/08/10 02:23:45;;;;;;;4.07;2.50;;;;;;;;;;5077826;28;20040;-82
2022/08/10 02:26:12;;;;;;;3.08;2.22;;;;;;;;;;5077488;28;20098;-82
2022/08/10 02:28:38;;;;;;;5.45;2.47;;;;;;;;;;5078009;28;20094;-82
2022/08/10 02:31:19;;;;;;;3.45;2.30;;;;;;;;;;5077953;28;20029;-82
2022/08/10 02:33:47;;;;;;;4.32;2.50;;;;;;;;;;5059840;28;20039;-82
2022/08/10 02:36:13;;;;;;;4.15;2.53;;;;;;;;;;5077223;28;20040;-82
2022/08/10 02:38:47;;;;;;;2.75;2.33;;;;;;;;;;5077884;28;20074;-82
2022/08/10 02:41:17;;;;;;;3.63;2.33;;;;;;;;;;5077746;28;20047;-82
2022/08/10 02:43:52;;;;;;;5.18;2.42;;;;;;;;;;5077300;28;20029;-82
2022/08/10 02:46:29;;;;;;;3.38;2.40;;;;;;;;;;5059227;28;20074;-82
2022/08/10 02:49:05;;;;;;;4.55;2.53;;;;;;;;;;5079379;28;20066;-82
2022/08/10 02:51:57;;;;;;;3.63;2.40;;;;;;;;;;5078134;28;20523;-81
2022/08/10 02:54:27;;;;;;;4.15;2.30;;;;;;;;;;5077066;28;20060;-81
2022/08/10 02:57:01;;;;;;;4.82;2.20;;;;;;;;;;5077347;28;20037;-81
2022/08/10 02:59:33;;;;;;;3.65;2.55;;;;;;;;;;5077638;28;20033;-81
2022/08/10 03:02:02;;;;;;;3.50;2.50;;;;;;;;;;5077460;28;20061;-81
2022/08/10 03:04:52;;;;;;;2.97;2.20;;;;;;;;;;5076287;28;20489;-81
2022/08/10 03:07:21;;;;;;;2.83;2.28;;;;;;;;;;5077141;28;20047;-81
2022/08/10 03:09:47;;;;;;;3.15;2.30;;;;;;;;;;5075680;28;20033;-81
2022/08/10 03:12:14;;;;;;;4.95;2.40;;;;;;;;;;5058870;28;20497;-80
2022/08/10 03:14:41;;;;;;;3.20;2.50;;;;;;;;;;5076501;28;20119;-82
2022/08/10 03:17:09;;;;;;;3.92;2.30;;;;;;;;;;5076635;28;20489;-81
2022/08/10 03:19:37;;;;;;;4.22;2.50;;;;;;;;;;5059146;28;20036;-81
2022/08/10 03:22:03;;;;;;;3.13;2.30;;;;;;;;;;5077304;28;20046;-83
2022/08/10 03:24:30;;;;;;;3.28;2.42;;;;;;;;;;5076432;28;20028;-83
2022/08/10 03:26:56;;;;;;;3.38;2.33;;;;;;;;;;5042255;28;20040;-83
2022/08/10 03:29:22;;;;;;;2.67;2.20;;;;;;;;;;5058627;28;20032;-83
2022/08/10 03:31:49;;;;;;;4.70;2.55;;;;;;;;;;5058447;28;20047;-83
2022/08/10 03:34:16;;;;;;;2.83;2.40;;;;;;;;;;5076178;28;20033;-82
2022/08/10 03:36:42;;;;;;;3.10;2.50;;;;;;;;;;5041714;28;20398;-82
2022/08/10 03:39:08;;;;;;;3.63;2.13;;;;;;;;;;5076299;28;20032;-82
2022/08/10 03:41:41;;;;;;;3.70;2.50;;;;;;;;;;5076953;28;20041;-82
2022/08/10 03:44:09;;;;;;;3.78;2.50;;;;;;;;;;5075593;28;20032;-82
2022/08/10 03:46:38;;;;;;;3.45;2.42;;;;;;;;;;5058191;28;20056;-82
2022/08/10 03:49:04;;;;;;;4.10;2.40;;;;;;;;;;5075882;28;20128;-82
2022/08/10 03:51:32;;;;;;;5.15;2.38;;;;;;;;;;5075762;28;20044;-82
2022/08/10 03:53:58;;;;;;;4.55;2.58;;;;;;;;;;5075526;28;20040;-81
2022/08/10 03:56:24;;;;;;;3.85;2.78;;;;;;;;;;5057976;28;20085;-82
2022/08/10 03:58:50;;;;;;;5.93;3.00;;;;;;;;;;5058709;28;20036;-82
2022/08/10 04:01:17;;;;;;;4.55;2.60;;;;;;;;;;5058437;28;20039;-82
2022/08/10 04:03:43;;;;;;;7.53;2.78;;;;;;;;;;5076339;28;20488;-82
2022/08/10 04:06:09;;;;;;;3.35;2.70;;;;;;;;;;5075686;28;20032;-82
2022/08/10 04:08:40;;;;;;;6.28;2.70;;;;;;;;;;5058063;28;20036;-82
2022/08/10 04:11:06;;;;;;;3.30;2.60;;;;;;;;;;5074170;28;20036;-81
2022/08/10 04:13:32;;;;;;;4.55;2.60;;;;;;;;;;5075884;28;20500;-82
2022/08/10 04:15:57;;;;;;;6.55;2.83;;;;;;;;;;5056845;28;20044;-82
2022/08/10 04:18:23;;;;;;;3.80;2.70;;;;;;;;;;5058277;28;20042;-82
2022/08/10 04:20:54;;;;;;;3.75;2.70;;;;;;;;;;5075323;28;20044;-82
2022/08/10 04:23:23;;;;;;;3.78;2.50;;;;;;;;;;5075361;28;20039;-82
2022/08/10 04:25:49;;;;;;;5.85;2.60;;;;;;;;;;5075000;28;20033;-82
2022/08/10 04:28:15;;;;;;;4.40;3.15;;;;;;;;;;5057199;28;20033;-82
2022/08/10 04:30:43;;;;;;;6.18;3.10;;;;;;;;;;5075193;28;20492;-81
2022/08/10 04:33:10;;;;;;;3.65;2.80;;;;;;;;;;5075701;28;20040;-82
2022/08/10 04:35:36;;;;;;;4.32;2.78;;;;;;;;;;5056815;28;20036;-82
2022/08/10 04:38:03;;;;;;;4.95;2.47;;;;;;;;;;5057429;28;20420;-82
2022/08/10 04:40:29;;;;;;;8.23;3.45;;;;;;;;;;5075405;28;20040;-82
2022/08/10 04:42:55;;;;;;;9.07;4.32;;;;;;;;;;5075452;28;20027;-82
2022/08/10 04:45:21;;;;;;;4.72;3.13;;;;;;;;;;5073820;28;20052;-82
2022/08/10 04:47:46;;;;;;;4.10;2.70;;;;;;;;;;5075083;28;20508;-82
2022/08/10 04:50:11;;;;;;;5.18;2.70;;;;;;;;;;5075415;28;20021;-82
2022/08/10 04:52:38;;;;;;;3.55;2.63;;;;;;;;;;5074966;28;20043;-81
2022/08/10 04:55:03;;;;;;;4.85;2.50;;;;;;;;;;5074691;28;20028;-82
2022/08/10 04:57:29;;;;;;;3.78;2.75;;;;;;;;;;5075282;28;20032;-82
2022/08/10 04:59:54;;;;;;;4.80;3.17;;;;;;;;;;5075202;28;20030;-82
2022/08/10 05:02:20;;;;;;;4.20;3.10;;;;;;;;;;5075956;28;20101;-82
2022/08/10 05:04:45;;;;;;;4.85;2.97;;;;;;;;;;5073820;28;20032;-82
2022/08/10 05:07:13;;;;;;;3.88;2.67;;;;;;;;;;5057187;28;20036;-82
2022/08/10 05:09:40;;;;;;;7.50;3.08;;;;;;;;;;5074074;28;20031;-82
2022/08/10 05:12:07;;;;;;;5.60;3.15;;;;;;;;;;5074695;28;20489;-82
2022/08/10 05:14:33;;;;;;;4.93;2.80;;;;;;;;;;5074340;28;20040;-82
2022/08/10 05:16:58;;;;;;;4.97;2.80;;;;;;;;;;5074722;28;20170;-82
2022/08/10 05:19:25;;;;;;;7.40;2.78;;;;;;;;;;5074234;28;20031;-82
2022/08/10 05:21:51;;;;;;;3.92;2.80;;;;;;;;;;5074868;28;20041;-82
2022/08/10 05:24:16;;;;;;;6.93;2.50;;;;;;;;;;5073691;28;20103;-82
2022/08/10 05:26:42;;;;;;;5.43;2.42;;;;;;;;;;5074933;28;20415;-81
2022/08/10 05:29:07;;;;;;;4.13;2.70;;;;;;;;;;5074617;28;20058;-82
2022/08/10 05:31:32;;;;;;;4.47;2.53;;;;;;;;;;5057026;28;20040;-82
2022/08/10 05:33:58;;;;;;;6.72;2.65;;;;;;;;;;5056116;28;20663;-82
2022/08/10 05:36:23;;;;;;;4.47;2.60;;;;;;;;;;5056319;28;20032;-82
2022/08/10 05:38:50;;;;;;;4.20;2.95;;;;;;;;;;5074453;28;20036;-82
2022/08/10 05:41:16;;;;;;;6.30;2.55;;;;;;;;;;5074409;28;20477;-82
2022/08/10 05:43:43;;;;;;;3.88;2.30;;;;;;;;;;5074457;28;20044;-81
2022/08/10 05:46:08;;;;;;;7.15;2.63;;;;;;;;;;5074652;28;20381;-82
2022/08/10 05:48:39;;;;;;;5.47;2.80;;;;;;;;;;5074400;28;20033;-82
2022/08/10 05:51:04;;;;;;;3.65;2.50;;;;;;;;;;5075109;28;20029;-81
2022/08/10 05:53:32;;;;;;;4.55;2.30;;;;;;;;;;5056528;28;20104;-82
2022/08/10 05:55:58;;;;;;;3.13;2.40;;;;;;;;;;5075229;28;20047;-83
2022/08/10 05:58:24;;;;;;;6.00;2.67;;;;;;;;;;5060303;28;20393;-81
2022/08/10 06:00:54;;;;;;;3.67;2.60;;;;;;;;;;5078321;28;20037;-82
2022/08/10 06:03:25;;;;;;;3.75;2.70;;;;;;;;;;5078639;28;20088;-82
2022/08/10 06:05:53;;;;;;;7.95;3.10;;;;;;;;;;5077684;28;20036;-82
2022/08/10 06:08:22;;;;;;;6.47;2.55;;;;;;;;;;5078221;28;20040;-82
2022/08/10 06:10:52;;;;;;;4.40;2.60;;;;;;;;;;5076469;28;20033;-83
2022/08/10 06:16:06;;;;;;;6.13;2.70;;;;;;;;;;5077764;28;20043;-83
2022/08/10 06:18:32;;;;;;;4.63;2.40;;;;;;;;;;5078162;28;20028;-83
2022/08/10 06:20:59;;;;;;;4.30;2.40;;;;;;;;;;5060900;28;20032;-84
2022/08/10 06:23:27;;;;;;;3.97;2.40;;;;;;;;;;5059859;28;20036;-84
2022/08/10 06:25:54;;;;;;;5.75;2.58;;;;;;;;;;5077608;28;20040;-83
2022/08/10 06:28:21;;;;;;;4.70;3.08;;;;;;;;;;5078340;28;20025;-84
2022/08/10 06:30:48;;;;;;;4.82;2.63;;;;;;;;;;5060524;28;20048;-85
2022/08/10 06:33:16;;;;;;;7.88;2.50;;;;;;;;;;5060556;28;20499;-85
2022/08/10 06:35:42;;;;;;;4.43;2.50;;;;;;;;;;5059745;28;20127;-85
2022/08/10 06:38:10;;;;;;;5.80;2.53;;;;;;;;;;5060131;28;20513;-86
2022/08/10 06:40:39;;;;;;;10.88;2.65;;;;;;;;;;5060084;28;20036;-85
2022/08/10 06:43:08;;;;;;;3.28;2.33;;;;;;;;;;5078224;28;20038;-84
2022/08/10 06:45:42;;;;;;;5.05;2.30;;;;;;;;;;5076396;28;20085;-85
2022/08/10 06:48:08;;;;;;;7.82;2.40;;;;;;;;;;5059296;28;20456;-84
2022/08/10 06:50:38;;;;;;;5.30;2.42;;;;;;;;;;5078279;28;20040;-82
2022/08/10 06:53:11;;;;;;;4.70;2.30;;;;;;;;;;5078085;28;20139;-80
2022/08/10 06:55:38;;;;;;;;;;;;;;;;;;5060681;28;20029;-81
2022/08/10 06:58:04;;;;;;;4.20;2.30;;;;;;;;;;5059742;28;19912;-82
2022/08/10 07:00:32;;;;;;;3.22;2.17;;;;;;;;;;5077997;28;20496;-81
2022/08/10 07:03:05;;;;;;;6.00;3.70;;;;;;;;;;5078533;28;20040;-81
2022/08/10 07:05:34;;;;;;;3.50;2.13;;;;;;;;;;5078160;28;20055;-82
2022/08/10 07:08:00;;;;;;;5.05;2.10;;;;;;;;;;5078014;28;20028;-82
2022/08/10 07:10:27;;;;;;;3.83;2.08;;;;;;;;;;5076983;28;20040;-83
2022/08/10 07:12:56;;;;;;;3.97;2.20;;;;;;;;;;5076281;28;20564;-83
2022/08/10 07:15:24;;;;;;;4.80;2.28;;;;;;;;;;5077188;28;20540;-83
2022/08/10 07:17:51;;;;;;;3.00;2.17;;;;;;;;;;5060013;28;20550;-86
2022/08/10 07:20:19;;;;;;;4.57;2.15;;;;;;;;;;5058811;28;20028;-84
2022/08/10 07:22:51;;;;;;;5.50;2.30;;;;;;;;;;5076421;28;20433;-82
2022/08/10 07:25:20;;;;;;;3.50;2.10;;;;;;;;;;5058376;28;20029;-84
2022/08/10 07:27:46;;;;;;;2.92;2.00;;;;;;;;;;5076043;28;20032;-84
2022/08/10 07:30:12;;;;;;;3.63;2.00;;;;;;;;;;5058908;28;20032;-84
2022/08/10 07:32:40;;;;;;;3.70;2.00;;;;;;;;;;5076037;28;20037;-83
2022/08/10 07:35:09;;;;;;;6.15;2.30;;;;;;;;;;5075632;28;20048;-84
2022/08/10 07:37:36;;;;;;;5.53;2.22;;;;;;;;;;5076554;28;20093;-84
2022/08/10 07:40:03;;;;;;;4.43;2.25;;;;;;;;;;5076684;28;20051;-86
2022/08/10 07:42:31;;;;;;;3.35;2.15;;;;;;;;;;5077142;28;20056;-85
2022/08/10 07:44:57;;;;;;;4.20;2.10;;;;;;;;;;5058325;28;20078;-85
2022/08/10 07:47:28;;;;;;;2.90;2.00;;;;;;;;;;5076591;28;20036;-85
2022/08/10 07:49:58;;;;;;;6.53;2.10;;;;;;;;;;5076514;28;20126;-85
2022/08/10 07:52:25;;;;;;;3.92;2.00;;;;;;;;;;5076430;28;20067;-85
2022/08/10 07:54:52;;;;;;;3.95;2.10;;;;;;;;;;5057361;28;20017;-85
2022/08/10 07:57:28;;;;;;;5.97;2.00;;;;;;;;;;5057854;28;20484;-85
2022/08/10 08:00:00;;;;;;;2.83;1.70;;;;;;;;;;5076317;28;20036;-85
2022/08/10 08:02:48;;;;;;;6.55;1.70;;;;;;;;;;5058358;28;20037;-85
2022/08/10 08:05:15;;;;;;;3.25;1.75;;;;;;;;;;5074657;28;20036;-85
2022/08/10 08:07:42;;;;;;;4.20;1.85;;;;;;;;;;5076136;28;20043;-85
2022/08/10 08:10:10;;;;;;;2.33;1.60;;;;;;;;;;5057340;28;20384;-85
2022/08/10 08:12:37;;;;;;;3.53;1.92;;;;;;;;;;5075436;28;20059;-85
2022/08/10 08:15:04;;;;;;;4.35;2.03;;;;;;;;;;5057623;28;20028;-85
2022/08/10 08:17:32;;;;;;;4.03;1.70;;;;;;;;;;5076132;28;20036;-86
2022/08/10 08:19:58;;;;;;;2.40;1.65;;;;;;;;;;5074903;28;20032;-85
2022/08/10 08:22:26;;;;;;;3.30;1.83;;;;;;;;;;5075441;28;20124;-85
2022/08/10 08:24:55;;;;;;;4.43;1.70;;;;;;;;;;5074374;28;20028;-85
2022/08/10 08:27:22;;;;;;;4.93;1.73;;;;;;;;;;5057613;28;20071;-85
2022/08/10 08:29:50;;;;;;;3.58;1.73;;;;;;;;;;5057274;28;20063;-85
2022/08/10 08:32:22;;;;;;;3.42;1.70;;;;;;;;;;5077051;28;20028;-85
2022/08/10 08:34:53;;;;;;;4.47;1.70;;;;;;;;;;5077204;28;20036;-85
2022/08/10 08:37:21;;;;;;;6.50;2.00;;;;;;;;;;5059892;28;20060;-85
2022/08/10 08:39:47;;;;;;;4.40;1.85;;;;;;;;;;5077536;28;20036;-85
2022/08/10 08:42:27;;;;;;;6.57;1.92;;;;;;;;;;5077471;28;20111;-85
2022/08/10 08:44:53;;;;;;;6.13;1.90;;;;;;;;;;5077046;28;20032;-85
2022/08/10 08:47:52;;;;;;;4.40;1.80;;;;;;;;;;5077166;28;20102;-85
2022/08/10 08:50:42;;;;;;;11.35;2.20;;;;;;;;;;5059667;28;20499;-85
2022/08/10 08:53:36;;;;;;;8.57;2.00;;;;;;;;;;5077537;28;20044;-85
2022/08/10 08:56:17;;;;;;;8.05;2.05;;;;;;;;;;5042254;28;20035;-86
2022/08/10 08:59:04;;;;;;;13.50;2.17;;;;;;;;;;5076354;28;20029;-85
2022/08/10 09:02:05;;;;;;;4.60;1.70;;;;;;;;;;5076653;28;20454;-86
2022/08/10 09:04:30;;;;;;;7.70;2.20;;;;;;;;;;5051433;28;20560;-85
2022/08/10 09:07:23;;;;;;;2.90;2.03;;;;;;;;;;5059012;28;20079;-85
2022/08/10 09:10:03;;;;;;;2.22;1.60;;;;;;;;;;5075321;28;20036;-85
2022/08/10 09:12:41;;;;;;;5.00;2.10;;;;;;;;;;5059017;28;20048;-85
2022/08/10 09:15:34;;;;;;;3.30;2.00;;;;;;;;;;5076038;28;20115;-85
2022/08/10 09:18:40;;;;;;;6.57;2.05;;;;;;;;;;5077004;28;20043;-86
2022/08/10 09:21:18;;;;;;;7.07;2.00;;;;;;;;;;4998134;28;20095;-85
2022/08/10 09:24:20;;;;;;;3.53;2.00;;;;;;;;;;5070813;28;20044;-84
2022/08/10 09:26:49;;;;;;;6.82;2.05;;;;;;;;;;5076867;28;20040;-85
2022/08/10 09:29:43;;;;;;;3.88;1.90;;;;;;;;;;5076671;28;20033;-85
2022/08/10 09:32:17;;;;;;;8.68;2.20;;;;;;;;;;5076660;28;20032;-86
2022/08/10 09:35:11;;;;;;;8.23;2.00;;;;;;;;;;5075340;28;20037;-87
2022/08/10 09:37:43;;;;;;;6.53;1.90;;;;;;;;;;5076658;28;20036;-86
2022/08/10 09:40:23;;;;;;;6.93;2.40;;;;;;;;;;5059126;28;20044;-85
2022/08/10 09:43:20;;;;;;;5.93;2.00;;;;;;;;;;5077358;28;20115;-87
2022/08/10 09:45:56;;;;;;;4.00;2.15;;;;;;;;;;5038115;28;20049;-87
2022/08/10 09:48:27;;;;;;;5.45;2.00;;;;;;;;;;5076664;28;20454;-87
2022/08/10 09:51:25;;;;;;;3.72;1.92;;;;;;;;;;5058853;28;20042;-87
2022/08/10 09:54:14;;;;;;;4.03;1.85;;;;;;;;;;5076374;28;20078;-86
2022/08/10 09:57:00;;;;;;;6.10;2.00;;;;;;;;;;5076806;28;20037;-86
2022/08/10 09:59:46;;;;;;;3.10;1.73;;;;;;;;;;5045152;28;20127;-87
2022/08/10 10:02:48;;;;;;;7.90;1.83;;;;;;;;;;5058294;28;20043;-87
2022/08/10 10:05:38;;;;;;;5.53;1.52;;;;;;;;;;5039121;28;20079;-87
2022/08/10 10:08:16;;;;;;;5.13;1.63;;;;;;;;;;5058453;28;20062;-86
2022/08/10 10:11:15;;;;;;;3.45;1.80;;;;;;;;;;5074851;28;20033;-85
2022/08/10 10:14:05;;;;;;;3.47;1.70;;;;;;;;;;5077273;28;20058;-86
2022/08/10 10:16:40;;;;;;;7.03;1.83;;;;;;;;;;5076325;28;20037;-87
2022/08/10 10:19:37;;;;;;;5.10;1.70;;;;;;;;;;5076730;28;20043;-86
2022/08/10 10:22:05;;;;;;;2.75;1.50;;;;;;;;;;5076956;28;20048;-87
2022/08/10 10:24:51;;;;;;;4.40;1.77;;;;;;;;;;5075000;28;20420;-87
2022/08/10 10:27:16;;;;;;;6.38;1.73;;;;;;;;;;5077466;28;20041;-87
2022/08/10 10:29:58;;;;;;;2.95;1.70;;;;;;;;;;5059241;28;20123;-87
2022/08/10 10:33:01;;;;;;;2.97;1.60;;;;;;;;;;5076755;28;20096;-87
2022/08/10 10:35:37;;;;;;;4.43;1.80;;;;;;;;;;5075960;28;20028;-87
2022/08/10 10:38:08;;;;;;;6.70;1.80;;;;;;;;;;5057370;28;20032;-87
2022/08/10 10:40:43;;;;;;;4.30;1.60;;;;;;;;;;5074986;28;20032;-87
2022/08/10 10:43:32;;;;;;;3.50;1.80;;;;;;;;;;5078662;28;20064;-86
2022/08/10 10:46:41;;;;;;;3.63;1.75;;;;;;;;;;5081976;28;20032;-87
2022/08/10 10:49:21;;;;;;;4.68;1.77;;;;;;;;;;5081156;28;20032;-86
2022/08/10 10:52:03;;;;;;;5.43;1.80;;;;;;;;;;5080938;28;20092;-87
2022/08/10 10:54:44;;;;;;;3.63;1.83;;;;;;;;;;5061025;28;20040;-86
2022/08/10 10:57:23;;;;;;;4.78;1.70;;;;;;;;;;5062247;28;20068;-87
2022/08/10 11:00:08;;;;;;;3.42;1.80;;;;;;;;;;5079414;28;20473;-87
2022/08/10 11:02:57;;;;;;;5.55;1.73;;;;;;;;;;5081523;28;20089;-87
2022/08/10 11:05:32;;;;;;;4.28;1.50;;;;;;;;;;5082099;28;20086;-87
2022/08/10 11:08:03;;;;;;;6.97;2.10;;;;;;;;;;5080571;28;20045;-87
2022/08/10 11:10:47;;;;;;;4.35;1.60;;;;;;;;;;5079076;28;20036;-87
2022/08/10 11:13:33;;;;;;;3.95;1.70;;;;;;;;;;5062993;28;20098;-87
2022/08/10 11:16:09;;;;;;;5.35;1.85;;;;;;;;;;5081051;28;20481;-87
2022/08/10 11:18:43;;;;;;;5.25;1.48;;;;;;;;;;5080542;28;20115;-87
2022/08/10 11:21:22;;;;;;;4.78;1.45;;;;;;;;;;5080357;28;20032;-87
2022/08/10 11:24:18;;;;;;;3.65;1.67;;;;;;;;;;5080084;28;20481;-87
2022/08/10 11:27:16;;;;;;;5.35;1.50;;;;;;;;;;5080473;28;20040;-88
2022/08/10 11:29:54;;;;;;;6.75;1.70;;;;;;;;;;5079483;28;20048;-87
2022/08/10 11:32:31;;;;;;;4.35;1.52;;;;;;;;;;5061253;28;20047;-87
2022/08/10 11:35:08;;;;;;;4.53;1.70;;;;;;;;;;5080029;28;20125;-87
2022/08/10 11:37:54;;;;;;;3.88;1.67;;;;;;;;;;5060863;28;20040;-87
2022/08/10 11:41:01;;;;;;;2.28;1.50;;;;;;;;;;5062722;28;20060;-87
2022/08/10 11:43:28;;;;;;;5.05;1.63;;;;;;;;;;5051545;28;20082;-87
2022/08/10 11:46:04;;;;;;;5.28;1.98;;;;;;;;;;5061024;28;20032;-87
2022/08/10 11:48:37;;;;;;;4.97;1.58;;;;;;;;;;5079340;28;20044;-87
2022/08/10 11:51:10;;;;;;;2.78;1.50;;;;;;;;;;5060443;28;20682;-87
2022/08/10 11:53:47;;;;;;;8.05;1.88;;;;;;;;;;5079294;28;20056;-86
2022/08/10 11:56:28;;;;;;;3.03;1.40;;;;;;;;;;5077503;28;20036;-87
2022/08/10 12:01:40;;;;;;;1.88;1.30;;;;;;;;;;5079520;28;20112;-87
2022/08/10 12:04:07;;;;;;;3.45;1.67;;;;;;;;;;5078751;28;20048;-86
2022/08/10 12:06:36;;;;;;;4.55;1.58;;;;;;;;;;5079042;28;20045;-87
2022/08/10 12:09:06;;;;;;;4.50;1.60;;;;;;;;;;5059628;28;20048;-87
2022/08/10 12:11:33;;;;;;;5.15;1.55;;;;;;;;;;5060904;28;20047;-91
2022/08/10 12:14:17;;;;;;;2.88;1.50;;;;;;;;;;5077940;28;20036;-87
2022/08/10 12:16:53;;;;;;;5.20;1.80;;;;;;;;;;5077019;28;20036;-87
2022/08/10 12:19:38;;;;;;;4.82;1.55;;;;;;;;;;5058635;28;20486;-87
2022/08/10 12:22:11;;;;;;;2.38;1.42;;;;;;;;;;5075613;28;20028;-87
2022/08/10 12:24:41;;;;;;;4.53;1.55;;;;;;;;;;5076138;28;20481;-86
2022/08/10 12:27:54;;;;;;;5.07;1.50;;;;;;;;;;5076510;28;20035;-86
2022/08/10 12:30:28;;;;;;;2.65;1.58;;;;;;;;;;5026427;28;20097;-85
2022/08/10 12:33:08;;;;;;;2.20;1.50;;;;;;;;;;5077004;28;20067;-86
2022/08/10 12:35:46;;;;;;;3.53;1.40;;;;;;;;;;5076025;28;20039;-85
2022/08/10 12:38:43;;;;;;;3.35;1.50;;;;;;;;;;5059155;28;20036;-86
2022/08/10 12:41:23;;;;;;;6.25;1.60;;;;;;;;;;5076106;28;20071;-84
2022/08/10 12:43:55;;;;;;;4.93;1.45;;;;;;;;;;5058635;28;20040;-84
2022/08/10 12:46:39;;;;;;;3.53;1.45;;;;;;;;;;5077312;28;20044;-84
2022/08/10 12:49:26;;;;;;;2.97;1.60;;;;;;;;;;5076661;28;20508;-85
2022/08/10 12:52:13;;;;;;;2.10;1.27;;;;;;;;;;5076409;28;20715;-85
2022/08/10 12:54:40;;;;;;;3.92;1.35;;;;;;;;;;5076214;28;20036;-87
2022/08/10 12:57:11;;;;;;;5.30;1.60;;;;;;;;;;5076637;28;20397;-85
2022/08/10 12:59:42;;;;;;;4.03;1.50;;;;;;;;;;5058257;28;20078;-85
2022/08/10 13:02:12;;;;;;;5.68;1.60;;;;;;;;;;5041715;28;20033;-85
2022/08/10 13:04:41;;;;;;;3.25;1.50;;;;;;;;;;5058079;28;20032;-85
2022/08/10 13:07:09;;;;;;;3.80;1.40;;;;;;;;;;5058112;28;20496;-86
2022/08/10 13:09:35;;;;;;;6.38;1.80;;;;;;;;;;5075460;28;20548;-86
2022/08/10 13:12:06;;;;;;;5.45;1.65;;;;;;;;;;5076174;28;20037;-85
2022/08/10 13:14:40;;;;;;;8.18;1.50;;;;;;;;;;5075529;28;20071;-85
2022/08/10 13:17:06;;;;;;;4.63;1.60;;;;;;;;;;5076086;28;20048;-84
2022/08/10 13:19:42;;;;;;;6.20;1.73;;;;;;;;;;5076077;28;20066;-85
2022/08/10 13:22:08;;;;;;;5.25;1.65;;;;;;;;;;5075934;28;20033;-86
2022/08/10 13:24:44;;;;;;;5.07;1.85;;;;;;;;;;5076022;28;20063;-85
2022/08/10 13:27:12;;;;;;;4.43;1.65;;;;;;;;;;5075531;28;20040;-84
2022/08/10 13:29:42;;;;;;;4.40;1.70;;;;;;;;;;5075418;28;20071;-86
2022/08/10 13:32:09;;;;;;;2.17;1.58;;;;;;;;;;5076113;28;20032;-86
2022/08/10 13:34:38;;;;;;;6.15;1.92;;;;;;;;;;5056957;28;20037;-86
2022/08/10 13:37:10;;;;;;;4.50;1.75;;;;;;;;;;5075227;28;20037;-86
2022/08/10 13:39:39;;;;;;;4.07;1.73;;;;;;;;;;5075581;28;20029;-85
2022/08/10 13:42:08;;;;;;;7.90;1.80;;;;;;;;;;5057494;28;20055;-86
2022/08/10 13:44:41;;;;;;;4.43;1.60;;;;;;;;;;5075040;28;20038;-86
2022/08/10 13:47:09;;;;;;;3.83;1.65;;;;;;;;;;5076046;28;20090;-86
2022/08/10 13:50:19;;;;;;;5.32;1.50;;;;;;;;;;5075568;28;20033;-83
2022/08/10 13:52:51;;;;;;;4.03;1.73;;;;;;;;;;5068704;28;20386;-85
2022/08/10 13:55:25;;;;;;;5.00;1.50;;;;;;;;;;5077757;28;20036;-86
2022/08/10 13:57:56;;;;;;;4.95;1.85;;;;;;;;;;5059452;28;20039;-86
2022/08/10 14:00:33;;;;;;;2.88;1.40;;;;;;;;;;5059586;28;20131;-87
2022/08/10 14:03:04;;;;;;;4.55;1.50;;;;;;;;;;5076128;28;20064;-87
2022/08/10 14:05:36;;;;;;;5.28;1.50;;;;;;;;;;5078071;28;20036;-86
2022/08/10 14:08:04;;;;;;;4.23;1.37;;;;;;;;;;5075949;28;20101;-87
2022/08/10 14:10:38;;;;;;;7.20;1.63;;;;;;;;;;5074838;28;20258;-87
2022/08/10 14:13:05;;;;;;;3.95;1.67;;;;;;;;;;5076776;28;20036;-86
2022/08/10 14:15:33;;;;;;;4.30;1.40;;;;;;;;;;5056254;28;20109;-86
2022/08/10 14:18:00;;;;;;;4.75;1.40;;;;;;;;;;5078397;28;20043;-87
2022/08/10 14:20:34;;;;;;;5.63;1.65;;;;;;;;;;5080245;28;20086;-87
2022/08/10 14:23:01;;;;;;;3.17;1.67;;;;;;;;;;5080476;28;20028;-87
2022/08/10 14:25:28;;;;;;;2.90;1.50;;;;;;;;;;5061074;28;20501;-87
2022/08/10 14:27:57;;;;;;;3.20;1.75;;;;;;;;;;5079946;28;20034;-87
2022/08/10 14:30:24;;;;;;;7.38;1.70;;;;;;;;;;5079055;28;20042;-86
2022/08/10 14:32:51;;;;;;;3.40;1.58;;;;;;;;;;5079804;28;20039;-86
2022/08/10 14:35:19;;;;;;;8.38;1.70;;;;;;;;;;5059138;28;20040;-87
2022/08/10 14:37:53;;;;;;;3.65;1.60;;;;;;;;;;5076003;28;20040;-86
2022/08/10 14:40:21;;;;;;;5.65;1.70;;;;;;;;;;5077147;28;20032;-86
2022/08/10 14:43:03;;;;;;;3.95;1.50;;;;;;;;;;5060207;28;20043;-86
2022/08/10 14:45:32;;;;;;;5.28;1.63;;;;;;;;;;5058478;28;20485;-86
2022/08/10 14:48:04;;;;;;;4.63;1.50;;;;;;;;;;5077392;28;20033;-86
2022/08/10 14:50:34;;;;;;;3.03;1.50;;;;;;;;;;5077038;28;20036;-87
2022/08/10 14:53:09;;;;;;;3.65;1.67;;;;;;;;;;5077217;28;20040;-85
2022/08/10 14:55:35;;;;;;;5.45;1.65;;;;;;;;;;5059424;28;20473;-86
2022/08/10 14:58:02;;;;;;;6.63;1.80;;;;;;;;;;5077263;28;20471;-85
2022/08/10 15:00:35;;;;;;;5.47;1.73;;;;;;;;;;5076975;28;20032;-86
2022/08/10 15:03:04;;;;;;;3.90;1.70;;;;;;;;;;5076795;28;20090;-86
2022/08/10 15:05:29;;;;;;;5.93;1.60;;;;;;;;;;5058327;28;20036;-86
2022/08/10 15:07:55;;;;;;;3.83;1.67;;;;;;;;;;5076679;28;20093;-86
2022/08/10 15:10:23;;;;;;;4.85;1.50;;;;;;;;;;5075348;28;20059;-85
2022/08/10 15:12:51;;;;;;;4.15;1.50;;;;;;;;;;5059254;28;20040;-86
2022/08/10 15:15:19;;;;;;;2.80;1.60;;;;;;;;;;5058372;28;20125;-87
2022/08/10 15:17:49;;;;;;;2.58;1.52;;;;;;;;;;5076646;28;20032;-86
2022/08/10 15:20:26;;;;;;;2.70;1.60;;;;;;;;;;5076693;28;20035;-86
2022/08/10 15:22:58;;;;;;;3.97;1.60;;;;;;;;;;5076975;28;20036;-86